Semmes, Alabama
Current Conditions -  °F | °C
As of 7:56 AM on Monday 24 Nov 2014 (Local Time) from KMOB Reporting Station
Broken Clouds Broken Clouds  
Wind Chill: 68°   Ceiling: 25000
Heat Index: 68°   Visibility: 7mi
Dew Point: 65°   Wind: 7mph
Humidity: 90%   Direction: 260°W
Pressure: 29.84"   Gusts: NA
Location:  30.78°N, 88.26°W
Report Text: KMOB 241356Z 26006KT 7SM FEW012 BKN250 20/18 A2984 RMK AO2 SLP102 T02000183 $
Loading
Personal Weather Stations






























Interactive Weather Map New forecast layout! Learn more

10-Day Weather Forecast

Advertisements
Track Severe Weather on mobile